Time;durP1;ratioP1;P1;durP2;ratioP2;P2;SDS_P1;SDS_P2;PMS_P1;PMS_P2;Temp;Humidity;BMP_temperature;BMP_pressure;BME280_temperature;BME280_humidity;BME280_pressure;Samples;Min_cycle;Max_cycle;Signal;HPM_P1;HPM_P2
2022/10/09 00:00:29;;;;;;;5.40;3.17;;;;;;;9.30;93.48;95038.38;5047159;28;20212;-71
2022/10/09 00:02:57;;;;;;;5.38;3.50;;;;;;;9.32;93.32;95034.25;5048115;28;20223;-71
2022/10/09 00:05:25;;;;;;;5.28;3.67;;;;;;;9.35;93.64;95032.84;5047874;28;20243;-71
2022/10/09 00:07:53;;;;;;;7.72;3.88;;;;;;;9.33;94.32;95029.66;5049253;28;20203;-71
2022/10/09 00:10:20;;;;;;;5.25;3.50;;;;;;;9.28;94.55;95030.59;5067721;28;20264;-71
2022/10/09 00:12:47;;;;;;;6.47;3.90;;;;;;;9.28;95.33;95030.59;5068165;28;20241;-70
2022/10/09 00:15:14;;;;;;;6.75;3.83;;;;;;;9.36;95.28;95034.44;5067517;28;20705;-71
2022/10/09 00:17:41;;;;;;;5.68;3.50;;;;;;;9.34;95.41;95033.94;5067124;28;20234;-71
2022/10/09 00:20:10;;;;;;;6.45;3.80;;;;;;;9.24;95.45;95027.72;5067024;28;20639;-71
2022/10/09 00:22:37;;;;;;;11.00;3.55;;;;;;;9.26;95.07;95017.38;5066717;28;20213;-71
2022/10/09 00:25:04;;;;;;;6.80;3.95;;;;;;;9.29;95.30;95029.50;5067303;28;20489;-71
2022/10/09 00:27:31;;;;;;;7.45;4.03;;;;;;;9.31;95.73;95018.34;5052208;28;20262;-72
2022/10/09 00:29:58;;;;;;;6.35;4.13;;;;;;;9.32;95.34;95019.94;5049309;28;20276;-71
2022/10/09 00:32:25;;;;;;;9.18;3.58;;;;;;;9.29;94.28;95009.78;5048143;28;20663;-70
2022/10/09 00:34:52;;;;;;;3.42;2.70;;;;;;;9.39;93.34;95014.91;5048774;28;20204;-70
2022/10/09 00:37:20;;;;;;;4.63;3.17;;;;;;;9.30;93.73;95016.75;5048671;28;20767;-70
2022/10/09 00:39:47;;;;;;;7.22;2.92;;;;;;;9.29;94.49;95004.38;5048992;28;20200;-70
2022/10/09 00:42:14;;;;;;;5.80;3.22;;;;;;;9.18;94.52;95010.00;5067011;28;20284;-71
2022/10/09 00:45:00;;;;;;;12.63;3.55;;;;;;;9.08;95.09;95004.88;5068872;28;20277;-71
2022/10/09 00:47:31;;;;;;;5.55;3.40;;;;;;;9.04;95.49;95000.38;5036402;28;20732;-71
2022/10/09 00:50:01;;;;;;;6.63;3.22;;;;;;;8.97;95.74;94998.13;5048066;28;20235;-71
2022/10/09 00:52:31;;;;;;;6.53;3.92;;;;;;;9.01;95.66;95004.53;5049018;28;20207;-71
2022/10/09 00:55:00;;;;;;;5.00;3.17;;;;;;;9.00;95.36;94992.13;5052137;28;20585;-71
2022/10/09 00:57:27;;;;;;;9.27;3.25;;;;;;;8.97;95.06;94998.13;5052132;28;20293;-71
2022/10/09 00:59:54;;;;;;;4.55;2.80;;;;;;;8.93;95.03;94988.22;5052131;28;20215;-71
2022/10/09 01:02:21;;;;;;;5.05;2.92;;;;;;;8.97;94.47;94987.31;5051674;28;20266;-71
2022/10/09 01:04:48;;;;;;;5.85;3.10;;;;;;;8.93;94.86;94993.63;5052195;28;20559;-71
2022/10/09 01:07:28;;;;;;;3.40;2.08;;;;;;;8.94;94.63;94987.94;5052436;28;20215;-71
2022/10/09 01:10:02;;;;;;;6.15;2.85;;;;;;;8.88;94.70;94986.47;5052302;28;20647;-71
2022/10/09 01:12:45;;;;;;;5.38;3.38;;;;;;;8.87;94.79;94984.88;5051703;28;20286;-71
2022/10/09 01:15:18;;;;;;;5.88;3.60;;;;;;;8.87;94.85;94992.97;5051969;28;20659;-71
2022/10/09 01:17:53;;;;;;;4.47;3.15;;;;;;;8.76;95.22;94991.59;5051679;28;20223;-71
2022/10/09 01:20:34;;;;;;;5.80;3.33;;;;;;;8.84;95.08;94996.28;5051365;28;20610;-71
2022/10/09 01:23:22;;;;;;;5.97;3.20;;;;;;;8.89;94.97;94998.84;5051267;28;20210;-71
2022/10/09 01:26:04;;;;;;;5.57;2.92;;;;;;;8.78;94.81;94995.59;5053721;28;20195;-71
2022/10/09 01:28:35;;;;;;;4.10;2.60;;;;;;;8.81;94.29;94994.19;5054261;28;20301;-71
2022/10/09 01:31:06;;;;;;;5.63;2.88;;;;;;;8.79;94.30;94993.69;5052063;28;20200;-71
2022/10/09 01:33:34;;;;;;;4.22;2.20;;;;;;;8.78;94.35;94994.78;5051466;28;20281;-71
2022/10/09 01:36:01;;;;;;;5.03;2.95;;;;;;;8.85;94.43;94995.97;5051193;28;20243;-71
2022/10/09 01:38:29;;;;;;;4.43;2.38;;;;;;;8.84;94.28;94996.28;5050640;28;20288;-71
2022/10/09 01:40:57;;;;;;;4.75;2.75;;;;;;;8.78;94.38;94992.09;5051186;28;20212;-71
2022/10/09 01:43:24;;;;;;;4.03;2.70;;;;;;;8.77;94.00;94998.59;5050891;28;20261;-72
2022/10/09 01:45:52;;;;;;;8.98;3.10;;;;;;;8.68;93.90;94995.03;5051242;28;20260;-72
2022/10/09 01:48:23;;;;;;;2.85;2.45;;;;;;;8.66;94.07;94992.66;5051939;28;20543;-73
2022/10/09 01:50:57;;;;;;;4.15;2.88;;;;;;;8.65;94.28;95001.06;5051703;28;20211;-72
2022/10/09 01:53:25;;;;;;;3.92;2.58;;;;;;;8.65;94.25;94993.75;5052137;28;20272;-71
2022/10/09 01:55:58;;;;;;;5.53;3.20;;;;;;;8.64;94.34;94988.66;5051041;28;20204;-71
2022/10/09 01:58:31;;;;;;;10.10;3.10;;;;;;;8.63;94.40;94998.66;5051185;28;20269;-71
2022/10/09 02:01:05;;;;;;;5.20;2.83;;;;;;;8.63;94.66;94997.84;5051225;28;20257;-71
2022/10/09 02:03:33;;;;;;;3.60;2.55;;;;;;;8.59;94.80;94999.59;5050853;28;20199;-71
2022/10/09 02:06:03;;;;;;;5.03;2.60;;;;;;;8.62;94.95;95001.66;5051323;28;20207;-71
2022/10/09 02:08:32;;;;;;;4.90;3.00;;;;;;;8.68;94.63;95001.25;5038186;28;20200;-71
2022/10/09 02:11:02;;;;;;;6.28;2.92;;;;;;;8.63;94.49;95004.06;5051580;28;20212;-71
2022/10/09 02:13:30;;;;;;;3.58;2.40;;;;;;;8.68;94.38;95011.25;5070910;28;20211;-71
2022/10/09 02:16:06;;;;;;;6.15;3.45;;;;;;;8.67;94.34;95015.06;5070606;28;20198;-71
2022/10/09 02:18:40;;;;;;;5.32;3.10;;;;;;;8.62;94.53;95009.75;5071019;28;20280;-71
2022/10/09 02:21:13;;;;;;;4.28;2.83;;;;;;;8.48;94.67;95018.69;5070635;28;20324;-71
2022/10/09 02:23:41;;;;;;;4.38;2.95;;;;;;;8.43;94.89;95013.44;5070484;28;20674;-71
2022/10/09 02:26:09;;;;;;;6.28;3.78;;;;;;;8.42;94.97;95014.53;5065439;28;20249;-71
2022/10/09 02:28:36;;;;;;;5.05;2.88;;;;;;;8.44;95.25;95023.13;5050195;28;20204;-71
2022/10/09 02:31:13;;;;;;;6.45;2.67;;;;;;;8.45;95.16;95023.94;5050677;28;20756;-71
2022/10/09 02:33:40;;;;;;;4.22;2.65;;;;;;;8.46;95.02;95023.63;5050739;28;20269;-71
2022/10/09 02:36:07;;;;;;;21.75;3.70;;;;;;;8.41;94.86;95021.03;5049881;28;20253;-71
2022/10/09 02:38:33;;;;;;;3.38;2.47;;;;;;;8.45;94.59;95024.75;5050151;28;20258;-71
2022/10/09 02:41:01;;;;;;;5.70;3.08;;;;;;;8.45;94.96;95035.53;5050641;28;20258;-71
2022/10/09 02:43:28;;;;;;;5.20;2.58;;;;;;;8.44;94.78;95017.75;5052223;28;20289;-71
2022/10/09 02:45:55;;;;;;;4.78;2.95;;;;;;;8.33;94.43;95027.16;5061887;28;20288;-71
2022/10/09 02:48:23;;;;;;;5.65;2.33;;;;;;;8.29;94.93;95026.13;5049566;28;20594;-72
2022/10/09 02:50:50;;;;;;;3.88;2.08;;;;;;;8.34;95.17;95023.34;5050612;28;20277;-71
2022/10/09 02:53:17;;;;;;;4.38;2.92;;;;;;;8.41;95.53;95029.13;5050315;28;20261;-71
2022/10/09 02:55:44;;;;;;;4.13;2.60;;;;;;;8.40;95.00;95038.34;5050431;28;20211;-72
2022/10/09 02:58:10;;;;;;;3.20;2.90;;;;;;;8.43;94.49;95020.75;5049586;28;20576;-72
2022/10/09 03:00:38;;;;;;;4.68;2.80;;;;;;;8.37;95.40;95028.13;5050253;28;20626;-72
2022/10/09 03:03:05;;;;;;;6.38;2.88;;;;;;;8.38;96.18;95035.13;5050076;28;20230;-72
2022/10/09 03:05:33;;;;;;;5.05;2.97;;;;;;;8.38;96.42;95018.94;5049658;28;21128;-71
2022/10/09 03:08:00;;;;;;;7.32;3.10;;;;;;;8.39;95.48;95028.63;5049741;28;20748;-71
2022/10/09 03:10:27;;;;;;;2.78;2.00;;;;;;;8.35;95.47;95030.34;5049419;28;20211;-71
2022/10/09 03:12:53;;;;;;;4.95;2.65;;;;;;;8.35;95.30;95027.63;5066408;28;20207;-71
2022/10/09 03:15:20;;;;;;;6.28;3.65;;;;;;;8.29;96.01;95036.94;5069692;28;20249;-71
2022/10/09 03:17:47;;;;;;;5.57;2.92;;;;;;;8.16;96.92;95038.56;5068878;28;20280;-71
2022/10/09 03:20:14;;;;;;;5.20;2.78;;;;;;;8.18;97.01;95039.06;5069644;28;20229;-72
2022/10/09 03:22:42;;;;;;;5.10;2.83;;;;;;;8.17;97.13;95036.66;5069305;28;20211;-71
2022/10/09 03:25:09;;;;;;;6.68;2.80;;;;;;;8.23;96.83;95043.53;5069956;28;20256;-71
2022/10/09 03:27:36;;;;;;;5.10;3.10;;;;;;;8.15;96.72;95052.34;5051731;28;20602;-71
2022/10/09 03:30:03;;;;;;;3.67;2.75;;;;;;;8.14;96.14;95039.94;5048945;28;20203;-71
2022/10/09 03:32:30;;;;;;;6.03;2.78;;;;;;;8.13;95.69;95041.03;5054495;28;20203;-71
2022/10/09 03:34:57;;;;;;;5.63;3.08;;;;;;;8.19;95.64;95047.94;5069464;28;20203;-72
2022/10/09 03:37:24;;;;;;;4.72;2.63;;;;;;;8.20;95.70;95050.31;5050114;28;20231;-72
2022/10/09 03:39:52;;;;;;;5.57;2.63;;;;;;;8.19;95.72;95040.66;5049452;28;20208;-71
2022/10/09 03:42:19;;;;;;;4.22;2.83;;;;;;;8.22;95.50;95052.72;5054706;28;20630;-71
2022/10/09 03:44:46;;;;;;;3.95;2.67;;;;;;;8.21;95.36;95051.13;5069273;28;20632;-71
2022/10/09 03:47:12;;;;;;;5.90;2.75;;;;;;;8.19;95.39;95053.34;5069039;28;20231;-71
2022/10/09 03:49:39;;;;;;;4.43;2.85;;;;;;;8.15;95.62;95055.84;5069169;28;20295;-71
2022/10/09 03:52:06;;;;;;;4.50;3.00;;;;;;;8.21;95.79;95056.50;5049902;28;20203;-71
2022/10/09 03:54:33;;;;;;;4.95;3.03;;;;;;;8.19;95.77;95058.75;5049289;28;20253;-71
2022/10/09 03:57:01;;;;;;;2.85;2.40;;;;;;;8.16;95.82;95060.13;5049032;28;20211;-71
2022/10/09 03:59:28;;;;;;;6.45;2.75;;;;;;;8.15;95.64;95057.75;5048956;28;20289;-71
2022/10/09 04:01:54;;;;;;;4.55;2.83;;;;;;;8.18;95.50;95059.84;5049050;28;20309;-71
2022/10/09 04:04:22;;;;;;;5.55;2.95;;;;;;;8.05;96.00;95063.34;5062826;28;20206;-71
2022/10/09 04:06:49;;;;;;;4.60;2.78;;;;;;;7.89;97.67;95057.44;5068793;28;20206;-71
2022/10/09 04:09:15;;;;;;;5.32;3.42;;;;;;;7.76;98.59;95055.56;5068192;28;20719;-71
2022/10/09 04:11:42;;;;;;;4.05;3.22;;;;;;;7.80;99.19;95062.72;5069090;28;20203;-72
2022/10/09 04:14:10;;;;;;;6.50;3.47;;;;;;;7.87;99.29;95062.34;5069102;28;20611;-71
2022/10/09 04:16:37;;;;;;;4.63;3.20;;;;;;;7.91;99.33;95054.47;5069219;28;20739;-71
2022/10/09 04:19:04;;;;;;;4.80;3.05;;;;;;;8.00;99.60;95068.84;5068717;28;20234;-72
2022/10/09 04:21:32;;;;;;;12.40;6.55;;;;;;;8.00;99.44;95055.34;5068886;28;20210;-71
2022/10/09 04:23:59;;;;;;;10.25;5.78;;;;;;;8.01;99.52;95052.34;5068063;28;20203;-71
2022/10/09 04:26:26;;;;;;;9.18;6.65;;;;;;;8.04;99.31;95056.34;5061664;28;20227;-70
2022/10/09 04:28:53;;;;;;;8.80;6.07;;;;;;;7.96;99.27;95062.44;5052644;28;20265;-71
2022/10/09 04:31:21;;;;;;;8.68;6.15;;;;;;;7.91;99.27;95062.56;5053074;28;20211;-73
2022/10/09 04:33:48;;;;;;;12.55;6.70;;;;;;;7.93;99.13;95063.03;5052085;28;20211;-72
2022/10/09 04:36:15;;;;;;;5.55;3.67;;;;;;;7.99;99.06;95069.94;5052905;28;20230;-72
2022/10/09 04:38:42;;;;;;;7.40;2.75;;;;;;;8.01;98.71;95065.03;5052445;28;20703;-72
2022/10/09 04:41:10;;;;;;;4.20;2.65;;;;;;;8.07;98.21;95071.91;5063071;28;20616;-72
2022/10/09 04:43:37;;;;;;;5.25;2.63;;;;;;;8.12;97.86;95063.72;5072885;28;20207;-72
2022/10/09 04:46:04;;;;;;;7.28;3.13;;;;;;;8.15;97.70;95068.53;5072790;28;20215;-72
2022/10/09 04:48:37;;;;;;;5.50;2.75;;;;;;;8.31;97.28;95071.72;5068770;28;20285;-72
2022/10/09 04:51:05;;;;;;;5.25;3.33;;;;;;;8.41;96.85;95068.81;5052433;28;20621;-72
2022/10/09 04:53:32;;;;;;;5.47;3.45;;;;;;;8.47;96.17;95070.34;5052203;28;20216;-71
2022/10/09 04:56:02;;;;;;;5.15;2.95;;;;;;;8.69;95.68;95067.66;5052604;28;20253;-71
2022/10/09 04:58:29;;;;;;;6.47;3.03;;;;;;;8.87;93.37;95069.41;5049281;28;20765;-71
2022/10/09 05:00:56;;;;;;;4.32;3.22;;;;;;;8.94;92.80;95062.78;5048700;28;20285;-72
2022/10/09 05:03:22;;;;;;;4.72;3.30;;;;;;;9.13;91.90;95071.50;5065493;28;20208;-71
2022/10/09 05:05:51;;;;;;;7.43;3.28;;;;;;;9.32;90.77;95068.59;5051977;28;20594;-71
2022/10/09 05:08:17;;;;;;;6.45;3.10;;;;;;;9.71;89.63;95074.06;5051820;28;20212;-72
2022/10/09 05:10:44;;;;;;;5.00;3.42;;;;;;;10.14;88.26;95076.16;5052511;28;20265;-72
2022/10/09 05:13:11;;;;;;;9.93;3.08;;;;;;;10.40;86.47;95074.38;5051099;28;20287;-72
2022/10/09 05:15:38;;;;;;;7.32;3.97;;;;;;;10.64;85.75;95072.03;5051953;28;20555;-72
2022/10/09 05:18:05;;;;;;;14.90;4.75;;;;;;;10.77;85.40;95074.91;5051976;28;20232;-72
2022/10/09 05:20:32;;;;;;;7.05;3.33;;;;;;;11.10;84.30;95078.75;5051984;28;20249;-70
2022/10/09 05:23:00;;;;;;;4.82;3.55;;;;;;;11.03;83.58;95073.03;5051304;28;20556;-70
2022/10/09 05:25:27;;;;;;;7.40;4.32;;;;;;;11.71;82.46;95076.75;5051271;28;20207;-70
2022/10/09 05:27:53;;;;;;;5.63;4.07;;;;;;;12.52;79.95;95079.31;5058165;28;20223;-70
2022/10/09 05:30:20;;;;;;;6.10;3.95;;;;;;;13.40;75.57;95071.00;5051012;28;20203;-70
2022/10/09 05:32:48;;;;;;;10.40;4.65;;;;;;;14.26;73.53;95068.50;5051061;28;20208;-71
2022/10/09 05:35:14;;;;;;;7.25;4.57;;;;;;;14.77;71.71;95070.53;5050642;28;20207;-72
2022/10/09 05:37:44;;;;;;;7.43;3.70;;;;;;;15.48;68.98;95075.38;5058694;28;20211;-70
2022/10/09 05:40:13;;;;;;;7.03;4.10;;;;;;;16.22;67.24;95068.41;5070630;28;20262;-71
2022/10/09 05:42:40;;;;;;;7.35;3.95;;;;;;;16.61;65.48;95063.88;5071282;28;20207;-71
2022/10/09 05:45:08;;;;;;;8.70;4.35;;;;;;;17.04;64.30;95068.41;5071227;28;20207;-71
2022/10/09 05:47:35;;;;;;;8.80;4.90;;;;;;;17.87;61.54;95066.22;5052247;28;20425;-72
2022/10/09 05:50:02;;;;;;;7.35;5.57;;;;;;;18.31;57.99;95061.13;5050994;28;20243;-72
2022/10/09 05:52:29;;;;;;;7.35;5.28;;;;;;;19.03;56.42;95055.59;5050356;28;20208;-71
2022/10/09 05:54:56;;;;;;;6.53;4.65;;;;;;;19.27;54.88;95059.09;5051983;28;20196;-70
2022/10/09 05:57:25;;;;;;;6.80;4.38;;;;;;;19.18;54.09;95057.41;5047673;28;20195;-72
2022/10/09 05:59:51;;;;;;;8.48;3.90;;;;;;;19.54;54.42;95065.34;5049648;28;20303;-72
2022/10/09 06:02:18;;;;;;;10.45;4.40;;;;;;;19.58;55.32;95068.91;5050366;28;20619;-70
2022/10/09 06:04:45;;;;;;;11.05;6.55;;;;;;;19.15;55.73;95074.63;5051589;28;20200;-70
2022/10/09 06:07:12;;;;;;;6.50;4.38;;;;;;;18.67;57.15;95075.47;5051539;28;20678;-71
2022/10/09 06:09:38;;;;;;;7.57;4.78;;;;;;;18.39;57.32;95087.53;5049419;28;20196;-70
2022/10/09 06:12:05;;;;;;;7.10;4.72;;;;;;;18.51;57.46;95088.50;5049918;28;20369;-70
2022/10/09 06:14:33;;;;;;;6.72;5.28;;;;;;;18.67;56.58;95075.47;5050506;28;20539;-70
2022/10/09 06:17:00;;;;;;;7.22;4.97;;;;;;;18.84;54.79;95088.69;5049403;28;20223;-72
2022/10/09 06:19:27;;;;;;;8.70;5.20;;;;;;;18.13;56.63;95103.91;5051737;28;20322;-71
2022/10/09 06:21:54;;;;;;;9.02;4.72;;;;;;;17.65;58.06;95102.56;5049302;28;20238;-71
2022/10/09 06:24:23;;;;;;;13.13;5.45;;;;;;;18.27;56.55;95101.44;5049995;28;20199;-71
2022/10/09 06:26:49;;;;;;;7.68;5.07;;;;;;;18.80;55.66;95096.06;5050636;28;20223;-71
2022/10/09 06:29:16;;;;;;;13.52;5.25;;;;;;;18.13;57.52;95095.69;5048796;28;20249;-71
2022/10/09 06:31:44;;;;;;;9.80;5.43;;;;;;;18.63;55.25;95108.34;5052013;28;20538;-71
2022/10/09 06:34:11;;;;;;;9.68;5.50;;;;;;;18.02;57.55;95105.66;5048711;28;20253;-71
2022/10/09 06:36:38;;;;;;;8.48;5.30;;;;;;;18.14;58.14;95110.97;5048423;28;20281;-71
2022/10/09 06:39:07;;;;;;;13.10;5.90;;;;;;;18.33;58.22;95105.44;5050381;28;20628;-72
2022/10/09 06:41:34;;;;;;;10.68;5.47;;;;;;;18.03;58.80;95118.22;5050899;28;20200;-71
2022/10/09 06:44:04;;;;;;;10.77;5.45;;;;;;;17.51;59.79;95130.44;5048398;28;20235;-71
2022/10/09 06:46:32;;;;;;;9.13;5.63;;;;;;;16.44;62.98;95129.06;5049156;28;20213;-70
2022/10/09 06:49:01;;;;;;;16.02;5.75;;;;;;;16.17;64.18;95128.78;5049491;28;20227;-70
2022/10/09 06:51:29;;;;;;;8.98;5.57;;;;;;;16.34;64.57;95127.66;5048581;28;20257;-72
2022/10/09 06:53:57;;;;;;;13.82;8.15;;;;;;;16.23;64.43;95127.41;5048627;28;20936;-71
2022/10/09 06:56:26;;;;;;;9.95;6.38;;;;;;;16.91;63.41;95129.91;5046120;28;20199;-71
2022/10/09 06:58:53;;;;;;;8.68;5.68;;;;;;;17.36;61.79;95129.34;5048775;28;20265;-71
2022/10/09 07:01:22;;;;;;;12.35;5.70;;;;;;;17.24;61.32;95120.44;5050192;28;20251;-72
2022/10/09 07:03:55;;;;;;;14.05;8.57;;;;;;;17.15;62.11;95122.59;5048887;28;20192;-70
2022/10/09 07:06:25;;;;;;;9.70;5.90;;;;;;;16.52;64.02;95128.13;5048593;28;20202;-70
2022/10/09 07:08:54;;;;;;;8.73;5.80;;;;;;;16.14;65.38;95118.56;5048421;28;20252;-70
2022/10/09 07:11:22;;;;;;;9.50;6.22;;;;;;;16.37;64.64;95128.91;5050094;28;20203;-70
2022/10/09 07:13:51;;;;;;;8.80;6.07;;;;;;;15.80;65.85;95130.13;5047691;28;20195;-70
2022/10/09 07:16:21;;;;;;;12.23;8.23;;;;;;;15.66;66.91;95127.00;5050922;28;20196;-70
2022/10/09 07:18:48;;;;;;;9.35;6.05;;;;;;;15.83;67.50;95129.44;5048083;28;20231;-72
2022/10/09 07:21:15;;;;;;;14.57;6.22;;;;;;;16.17;66.82;95128.00;5049364;28;20192;-71
2022/10/09 07:23:43;;;;;;;8.15;5.72;;;;;;;15.69;67.42;95132.56;5044722;28;20292;-71
2022/10/09 07:26:13;;;;;;;7.53;5.38;;;;;;;15.59;67.27;95135.78;5048387;28;20654;-71
2022/10/09 07:28:41;;;;;;;8.50;5.60;;;;;;;15.43;67.38;95152.06;5047727;28;20286;-70
2022/10/09 07:31:08;;;;;;;8.50;5.88;;;;;;;15.51;67.54;95134.75;5049614;28;20286;-70
2022/10/09 07:33:35;;;;;;;14.55;8.73;;;;;;;15.52;67.72;95139.06;5045017;28;20250;-72
2022/10/09 07:36:03;;;;;;;12.50;8.30;;;;;;;15.80;66.74;95146.53;5048571;28;20629;-70
2022/10/09 07:38:30;;;;;;;17.17;8.68;;;;;;;16.27;65.69;95143.88;5048006;28;20195;-71
2022/10/09 07:41:03;;;;;;;11.38;6.30;;;;;;;16.33;66.03;95143.28;5044985;28;20227;-73
2022/10/09 07:43:30;;;;;;;10.30;5.72;;;;;;;16.00;66.61;95140.84;5046344;28;20566;-70
2022/10/09 07:46:01;;;;;;;12.70;6.47;;;;;;;15.42;68.01;95157.88;5049270;28;20208;-72
2022/10/09 07:48:28;;;;;;;7.68;4.90;;;;;;;15.57;68.11;95149.78;5048935;28;20204;-71
2022/10/09 07:50:55;;;;;;;12.50;6.80;;;;;;;15.85;67.63;95143.56;5049970;28;20200;-73
2022/10/09 07:53:23;;;;;;;8.20;5.53;;;;;;;15.65;67.71;95145.31;5048200;28;20620;-70
2022/10/09 07:55:50;;;;;;;12.15;6.35;;;;;;;15.92;67.72;95143.72;5045739;28;20231;-73
2022/10/09 07:58:18;;;;;;;13.00;8.38;;;;;;;16.10;66.66;95144.22;5047662;28;20905;-72
2022/10/09 08:00:45;;;;;;;11.68;6.32;;;;;;;16.40;65.73;95145.38;5046461;28;20694;-71
2022/10/09 08:03:12;;;;;;;9.27;6.32;;;;;;;16.77;65.56;95140.50;5049134;28;20250;-71
2022/10/09 08:05:39;;;;;;;11.98;5.82;;;;;;;16.76;64.74;95138.91;5049208;28;20658;-73
2022/10/09 08:08:06;;;;;;;16.73;6.70;;;;;;;16.96;64.53;95137.81;5049089;28;20196;-72
2022/10/09 08:10:33;;;;;;;13.43;8.93;;;;;;;17.05;64.48;95141.19;5048153;28;20215;-73
2022/10/09 08:13:00;;;;;;;11.90;7.05;;;;;;;17.07;64.04;95104.44;5048868;28;20229;-74
2022/10/09 08:15:28;;;;;;;11.18;6.55;;;;;;;17.39;63.33;95133.31;5047772;28;20261;-71
2022/10/09 08:17:55;;;;;;;11.55;8.00;;;;;;;17.57;62.24;95115.31;5054313;28;20203;-72
2022/10/09 08:20:22;;;;;;;11.60;7.97;;;;;;;17.68;62.89;95129.25;5058072;28;20266;-71
2022/10/09 08:22:49;;;;;;;8.82;7.22;;;;;;;17.47;63.08;95113.16;5049398;28;20208;-72
2022/10/09 08:25:15;;;;;;;5.57;3.65;;;;;;;17.45;62.70;95115.44;5048632;28;20228;-71
2022/10/09 08:27:42;;;;;;;8.18;4.80;;;;;;;17.66;63.89;95109.63;5056236;28;20199;-71
2022/10/09 08:30:09;;;;;;;17.20;5.05;;;;;;;17.68;63.51;95118.28;5048096;28;20200;-70
2022/10/09 08:32:39;;;;;;;6.40;3.13;;;;;;;17.62;63.74;95126.00;5048928;28;20654;-74
2022/10/09 08:35:06;;;;;;;6.30;3.58;;;;;;;17.22;64.81;95122.78;5049979;28;20659;-71
2022/10/09 08:37:33;;;;;;;7.57;5.03;;;;;;;17.61;63.91;95121.66;5049852;28;20277;-71
2022/10/09 08:40:00;;;;;;;4.95;3.08;;;;;;;17.90;63.37;95125.81;5048963;28;20285;-71
2022/10/09 08:42:32;;;;;;;5.05;4.43;;;;;;;17.67;62.67;95122.19;5055638;28;20236;-71
2022/10/09 08:44:59;;;;;;;4.53;3.92;;;;;;;17.97;62.36;95122.41;5069439;28;20628;-70
2022/10/09 08:47:38;;;;;;;5.80;4.20;;;;;;;18.13;62.19;95117.63;5069776;28;20594;-72
2022/10/09 08:50:14;;;;;;;5.45;3.55;;;;;;;17.39;63.38;95123.16;5069682;28;20234;-72
2022/10/09 08:52:49;;;;;;;4.90;3.95;;;;;;;17.46;63.90;95122.53;5069601;28;20264;-71
2022/10/09 08:55:23;;;;;;;7.38;4.25;;;;;;;17.49;63.16;95105.38;5070299;28;20619;-72
2022/10/09 08:57:53;;;;;;;5.93;3.38;;;;;;;17.63;62.39;95100.19;5057046;28;20665;-71
2022/10/09 09:00:22;;;;;;;6.88;3.88;;;;;;;18.05;62.76;95099.44;5035968;28;20235;-71
2022/10/09 09:03:11;;;;;;;4.15;2.88;;;;;;;18.27;60.83;95090.44;5049723;28;20266;-72
2022/10/09 09:05:48;;;;;;;5.53;4.22;;;;;;;18.26;59.98;95093.56;5048043;28;20215;-72
2022/10/09 09:08:26;;;;;;;8.93;4.07;;;;;;;18.42;60.37;95092.28;5049435;28;20281;-72
2022/10/09 09:11:07;;;;;;;6.43;4.05;;;;;;;18.59;60.89;95095.72;5049906;28;20199;-72
2022/10/09 09:13:47;;;;;;;7.28;4.35;;;;;;;18.40;59.22;95080.88;5049868;28;20641;-72
2022/10/09 09:16:22;;;;;;;5.43;4.03;;;;;;;18.50;58.69;95079.47;5052324;28;20199;-71
2022/10/09 09:18:54;;;;;;;8.02;4.30;;;;;;;18.39;60.39;95079.28;5052405;28;20199;-71
2022/10/09 09:21:39;;;;;;;7.28;3.95;;;;;;;18.59;59.86;95079.25;5058545;28;20207;-71
2022/10/09 09:24:13;;;;;;;5.97;3.40;;;;;;;18.62;59.17;95081.25;5072851;28;20723;-72
2022/10/09 09:26:43;;;;;;;4.70;3.90;;;;;;;18.47;60.36;95086.47;5070573;28;20230;-71
2022/10/09 09:29:12;;;;;;;11.13;4.40;;;;;;;18.85;60.20;95082.03;5053100;28;20200;-72
2022/10/09 09:31:41;;;;;;;8.35;4.05;;;;;;;18.97;58.63;95084.56;5052785;28;20620;-73
2022/10/09 09:34:14;;;;;;;4.97;3.60;;;;;;;19.11;58.45;95084.78;5052474;28;20204;-72
2022/10/09 09:36:49;;;;;;;5.40;3.63;;;;;;;18.90;58.16;95089.94;5053030;28;20685;-71
2022/10/09 09:39:16;;;;;;;4.85;3.50;;;;;;;19.29;58.26;95087.75;5052677;28;20211;-71
2022/10/09 09:41:44;;;;;;;5.53;3.70;;;;;;;19.43;57.50;95076.16;5052616;28;20662;-72
2022/10/09 09:44:13;;;;;;;4.82;3.22;;;;;;;19.74;57.46;95078.56;5052030;28;20208;-71
2022/10/09 09:46:41;;;;;;;8.07;3.83;;;;;;;20.05;55.85;95079.28;5051932;28;20800;-71
2022/10/09 09:49:20;;;;;;;4.45;3.60;;;;;;;19.31;57.53;95084.63;5052923;28;20273;-72
2022/10/09 09:51:50;;;;;;;5.60;3.17;;;;;;;19.51;56.80;95086.13;5052785;28;20219;-73
2022/10/09 09:54:21;;;;;;;5.15;3.75;;;;;;;19.70;56.82;95085.16;5052482;28;20204;-72
2022/10/09 09:56:50;;;;;;;5.05;3.70;;;;;;;19.77;56.39;95086.06;5052534;28;20207;-71
2022/10/09 09:59:31;;;;;;;6.80;3.60;;;;;;;19.55;56.98;95089.69;5051995;28;20675;-71
2022/10/09 10:02:04;;;;;;;5.13;3.60;;;;;;;19.43;57.43;95089.91;5039413;28;20203;-72
2022/10/09 10:04:31;;;;;;;5.45;3.00;;;;;;;19.41;56.36;95086.72;5052043;28;20616;-71
2022/10/09 10:06:59;;;;;;;6.70;3.30;;;;;;;19.75;56.29;95090.34;5052492;28;20199;-72
2022/10/09 10:09:27;;;;;;;3.90;3.22;;;;;;;19.79;55.27;95086.47;5053698;28;20259;-71
2022/10/09 10:11:57;;;;;;;4.47;3.17;;;;;;;19.68;55.01;95091.03;5072260;28;20237;-71
2022/10/09 10:14:24;;;;;;;4.28;3.65;;;;;;;19.75;56.63;95084.84;5055228;28;20286;-71
2022/10/09 10:16:53;;;;;;;5.18;3.20;;;;;;;19.54;55.87;95090.09;5051439;28;20690;-71
2022/10/09 10:19:22;;;;;;;3.75;3.17;;;;;;;19.78;56.79;95073.91;5051977;28;20212;-72
2022/10/09 10:21:56;;;;;;;5.97;3.30;;;;;;;19.69;55.81;95087.13;5052074;28;20203;-73
2022/10/09 10:24:28;;;;;;;3.65;3.03;;;;;;;19.71;56.14;95084.78;5056393;28;20194;-72
2022/10/09 10:26:58;;;;;;;4.57;3.08;;;;;;;19.99;55.57;95083.53;5067777;28;20220;-71
2022/10/09 10:29:32;;;;;;;4.22;3.00;;;;;;;20.05;54.54;95082.84;5051889;28;20536;-71
2022/10/09 10:32:05;;;;;;;4.38;3.03;;;;;;;20.27;55.11;95080.28;5065317;28;20234;-72
2022/10/09 10:34:37;;;;;;;4.10;2.97;;;;;;;20.07;54.63;95074.22;5063489;28;20200;-73
2022/10/09 10:37:18;;;;;;;3.97;2.70;;;;;;;19.77;54.38;95083.31;5051109;28;20257;-76
2022/10/09 10:39:52;;;;;;;6.50;2.97;;;;;;;19.93;54.78;95076.81;5050568;28;20219;-72
2022/10/09 10:42:22;;;;;;;3.75;3.08;;;;;;;19.97;54.78;95066.63;5069514;28;20199;-71
2022/10/09 10:44:55;;;;;;;4.15;3.53;;;;;;;19.83;54.79;95065.28;5070321;28;20601;-71
2022/10/09 10:47:26;;;;;;;4.07;3.28;;;;;;;20.29;54.31;95064.19;5070674;28;20250;-73
2022/10/09 10:49:53;;;;;;;5.13;3.17;;;;;;;20.23;53.42;95049.97;5071078;28;20235;-71
2022/10/09 10:52:35;;;;;;;4.18;3.35;;;;;;;20.46;52.52;95058.91;5071185;28;20211;-71
2022/10/09 10:55:19;;;;;;;3.83;2.80;;;;;;;20.32;52.68;95047.72;5054527;28;20679;-72
2022/10/09 10:57:55;;;;;;;9.05;3.35;;;;;;;20.48;52.55;95051.06;5051623;28;20199;-71
2022/10/09 11:00:22;;;;;;;4.38;3.30;;;;;;;20.43;52.65;95043.13;5037895;28;20239;-72
2022/10/09 11:03:19;;;;;;;5.53;2.70;;;;;;;20.53;52.98;95047.13;5051020;28;20269;-71
2022/10/09 11:05:51;;;;;;;4.47;3.10;;;;;;;20.25;51.52;95036.63;5050963;28;20210;-71
2022/10/09 11:08:40;;;;;;;4.75;2.88;;;;;;;20.49;52.17;95036.13;5051047;28;20257;-72
2022/10/09 11:11:16;;;;;;;4.32;2.67;;;;;;;20.75;51.26;95037.09;5050663;28;20208;-72
2022/10/09 11:13:51;;;;;;;4.82;2.83;;;;;;;20.39;50.51;95028.53;5050762;28;20740;-72
2022/10/09 11:16:31;;;;;;;5.95;3.05;;;;;;;20.68;51.70;95034.28;5050236;28;20272;-72
2022/10/09 11:19:14;;;;;;;6.35;2.67;;;;;;;20.65;50.21;95013.81;5050794;28;20223;-72
2022/10/09 11:21:55;;;;;;;3.85;2.80;;;;;;;20.75;49.30;95026.09;5050545;28;20813;-72
2022/10/09 11:24:45;;;;;;;5.00;2.80;;;;;;;20.61;50.12;95020.47;5050298;28;20609;-73
2022/10/09 11:27:19;;;;;;;12.88;5.97;;;;;;;20.84;49.26;95012.75;5055834;28;20257;-74
2022/10/09 11:29:50;;;;;;;4.65;3.30;;;;;;;21.21;49.25;95010.63;5050824;28;20218;-73
2022/10/09 11:32:21;;;;;;;3.28;2.83;;;;;;;20.75;48.10;94982.03;5051049;28;20329;-72
2022/10/09 11:34:54;;;;;;;4.13;2.90;;;;;;;20.85;47.28;95014.34;5050309;28;20215;-73
2022/10/09 11:37:27;;;;;;;8.32;2.75;;;;;;;20.82;46.56;95012.34;5049868;28;20208;-72
2022/10/09 11:39:55;;;;;;;3.60;2.80;;;;;;;20.87;46.34;95012.00;5050495;28;20697;-72
2022/10/09 11:42:25;;;;;;;4.30;2.85;;;;;;;21.18;46.55;94999.59;5050524;28;20213;-74
2022/10/09 11:45:07;;;;;;;4.30;2.80;;;;;;;21.02;46.52;94994.38;5049777;28;20668;-72
2022/10/09 11:47:44;;;;;;;5.82;3.03;;;;;;;21.13;48.60;94986.97;5049622;28;20227;-71